sensor_id;sensor_type;location;lat;lon;timestamp;P1;durP1;ratioP1;P2;durP2;ratioP2
38853;SDS011;24606;51.992;4.198;2023-10-13T00:00:41;7.93;;;1.67;;
38853;SDS011;24606;51.992;4.198;2023-10-13T00:05:43;10.45;;;2.78;;
38853;SDS011;24606;51.992;4.198;2023-10-13T00:10:46;7.43;;;2.28;;
38853;SDS011;24606;51.992;4.198;2023-10-13T00:15:48;3.72;;;1.50;;
38853;SDS011;24606;51.992;4.198;2023-10-13T00:20:57;5.40;;;2.20;;
38853;SDS011;24606;51.992;4.198;2023-10-13T00:26:00;11.30;;;2.70;;
38853;SDS011;24606;51.992;4.198;2023-10-13T00:31:03;10.10;;;4.03;;
38853;SDS011;24606;51.992;4.198;2023-10-13T00:36:10;8.93;;;3.33;;
38853;SDS011;24606;51.992;4.198;2023-10-13T00:41:20;7.38;;;2.22;;
38853;SDS011;24606;51.992;4.198;2023-10-13T00:46:42;5.65;;;3.83;;
38853;SDS011;24606;51.992;4.198;2023-10-13T00:51:46;9.25;;;5.43;;
38853;SDS011;24606;51.992;4.198;2023-10-13T00:56:49;8.73;;;4.70;;
38853;SDS011;24606;51.992;4.198;2023-10-13T01:01:57;10.95;;;4.80;;
38853;SDS011;24606;51.992;4.198;2023-10-13T01:07:20;11.82;;;4.05;;
38853;SDS011;24606;51.992;4.198;2023-10-13T01:12:24;10.15;;;4.03;;
38853;SDS011;24606;51.992;4.198;2023-10-13T01:17:26;8.48;;;3.50;;
38853;SDS011;24606;51.992;4.198;2023-10-13T01:22:31;9.25;;;3.60;;
38853;SDS011;24606;51.992;4.198;2023-10-13T01:27:36;7.88;;;4.43;;
38853;SDS011;24606;51.992;4.198;2023-10-13T01:32:39;5.30;;;2.10;;
38853;SDS011;24606;51.992;4.198;2023-10-13T01:37:45;5.95;;;3.90;;
38853;SDS011;24606;51.992;4.198;2023-10-13T01:42:48;3.83;;;1.50;;
38853;SDS011;24606;51.992;4.198;2023-10-13T01:47:55;6.82;;;4.40;;
38853;SDS011;24606;51.992;4.198;2023-10-13T01:52:57;8.27;;;4.90;;
38853;SDS011;24606;51.992;4.198;2023-10-13T01:58:13;7.05;;;3.95;;
38853;SDS011;24606;51.992;4.198;2023-10-13T02:03:15;3.80;;;3.13;;
38853;SDS011;24606;51.992;4.198;2023-10-13T02:08:18;6.40;;;3.38;;
38853;SDS011;24606;51.992;4.198;2023-10-13T02:13:26;10.57;;;4.78;;
38853;SDS011;24606;51.992;4.198;2023-10-13T02:18:29;8.00;;;4.60;;
38853;SDS011;24606;51.992;4.198;2023-10-13T02:23:34;7.57;;;3.55;;
38853;SDS011;24606;51.992;4.198;2023-10-13T02:28:44;6.00;;;1.90;;
38853;SDS011;24606;51.992;4.198;2023-10-13T02:33:51;10.95;;;4.10;;
38853;SDS011;24606;51.992;4.198;2023-10-13T02:38:54;11.10;;;2.05;;
38853;SDS011;24606;51.992;4.198;2023-10-13T02:43:59;3.78;;;1.08;;
38853;SDS011;24606;51.992;4.198;2023-10-13T02:49:01;2.63;;;1.00;;
38853;SDS011;24606;51.992;4.198;2023-10-13T02:54:09;2.70;;;0.60;;
38853;SDS011;24606;51.992;4.198;2023-10-13T03:15:27;3.35;;;1.00;;
38853;SDS011;24606;51.992;4.198;2023-10-13T03:20:36;2.72;;;1.13;;
38853;SDS011;24606;51.992;4.198;2023-10-13T03:25:42;2.17;;;1.00;;
38853;SDS011;24606;51.992;4.198;2023-10-13T03:30:45;2.13;;;0.90;;
38853;SDS011;24606;51.992;4.198;2023-10-13T03:35:52;1.40;;;0.70;;
38853;SDS011;24606;51.992;4.198;2023-10-13T03:40:54;6.03;;;1.92;;
38853;SDS011;24606;51.992;4.198;2023-10-13T03:46:08;4.50;;;1.88;;
38853;SDS011;24606;51.992;4.198;2023-10-13T03:51:10;0.93;;;0.60;;
38853;SDS011;24606;51.992;4.198;2023-10-13T03:56:15;3.45;;;1.45;;
38853;SDS011;24606;51.992;4.198;2023-10-13T04:01:27;3.40;;;1.65;;
38853;SDS011;24606;51.992;4.198;2023-10-13T04:06:34;3.33;;;1.83;;
38853;SDS011;24606;51.992;4.198;2023-10-13T04:12:13;5.47;;;2.83;;
38853;SDS011;24606;51.992;4.198;2023-10-13T04:17:48;4.53;;;2.58;;
38853;SDS011;24606;51.992;4.198;2023-10-13T04:22:51;7.95;;;1.75;;
38853;SDS011;24606;51.992;4.198;2023-10-13T04:28:10;6.15;;;4.05;;
38853;SDS011;24606;51.992;4.198;2023-10-13T04:33:35;8.95;;;3.67;;
38853;SDS011;24606;51.992;4.198;2023-10-13T04:38:44;7.03;;;2.88;;
38853;SDS011;24606;51.992;4.198;2023-10-13T04:43:57;10.95;;;3.00;;
38853;SDS011;24606;51.992;4.198;2023-10-13T04:49:06;7.80;;;2.25;;
38853;SDS011;24606;51.992;4.198;2023-10-13T04:54:27;15.32;;;4.13;;
38853;SDS011;24606;51.992;4.198;2023-10-13T04:59:45;19.45;;;4.38;;
38853;SDS011;24606;51.992;4.198;2023-10-13T05:05:02;11.85;;;2.72;;
38853;SDS011;24606;51.992;4.198;2023-10-13T05:10:22;8.35;;;2.75;;
38853;SDS011;24606;51.992;4.198;2023-10-13T05:15:46;15.65;;;3.58;;
38853;SDS011;24606;51.992;4.198;2023-10-13T05:21:07;9.07;;;2.47;;
38853;SDS011;24606;51.992;4.198;2023-10-13T05:26:27;7.72;;;2.20;;
38853;SDS011;24606;51.992;4.198;2023-10-13T05:31:46;15.15;;;2.10;;
38853;SDS011;24606;51.992;4.198;2023-10-13T05:37:07;13.20;;;2.33;;
38853;SDS011;24606;51.992;4.198;2023-10-13T05:42:26;10.63;;;2.33;;
38853;SDS011;24606;51.992;4.198;2023-10-13T05:47:45;11.18;;;2.60;;
38853;SDS011;24606;51.992;4.198;2023-10-13T05:52:52;13.32;;;2.22;;
38853;SDS011;24606;51.992;4.198;2023-10-13T05:58:11;5.70;;;2.15;;
38853;SDS011;24606;51.992;4.198;2023-10-13T06:03:31;8.50;;;1.80;;
38853;SDS011;24606;51.992;4.198;2023-10-13T06:08:52;5.20;;;1.65;;
38853;SDS011;24606;51.992;4.198;2023-10-13T06:14:11;6.07;;;2.22;;
38853;SDS011;24606;51.992;4.198;2023-10-13T06:19:31;7.43;;;1.95;;
38853;SDS011;24606;51.992;4.198;2023-10-13T06:24:51;13.20;;;3.65;;
38853;SDS011;24606;51.992;4.198;2023-10-13T06:30:11;4.82;;;1.50;;
38853;SDS011;24606;51.992;4.198;2023-10-13T06:35:13;4.85;;;1.48;;
38853;SDS011;24606;51.992;4.198;2023-10-13T06:40:24;4.22;;;2.20;;
38853;SDS011;24606;51.992;4.198;2023-10-13T06:45:35;5.55;;;2.33;;
38853;SDS011;24606;51.992;4.198;2023-10-13T06:50:37;7.75;;;4.80;;
38853;SDS011;24606;51.992;4.198;2023-10-13T06:55:43;5.90;;;2.80;;
38853;SDS011;24606;51.992;4.198;2023-10-13T07:00:46;7.60;;;3.35;;
38853;SDS011;24606;51.992;4.198;2023-10-13T07:05:55;11.52;;;3.15;;
38853;SDS011;24606;51.992;4.198;2023-10-13T07:11:00;15.38;;;3.40;;
38853;SDS011;24606;51.992;4.198;2023-10-13T07:16:08;16.33;;;4.28;;
38853;SDS011;24606;51.992;4.198;2023-10-13T07:21:12;8.35;;;2.78;;
38853;SDS011;24606;51.992;4.198;2023-10-13T07:26:15;13.40;;;3.55;;
38853;SDS011;24606;51.992;4.198;2023-10-13T07:31:17;6.88;;;2.67;;
38853;SDS011;24606;51.992;4.198;2023-10-13T07:36:20;5.70;;;2.65;;
38853;SDS011;24606;51.992;4.198;2023-10-13T07:41:29;8.95;;;2.90;;
38853;SDS011;24606;51.992;4.198;2023-10-13T07:46:33;12.95;;;4.22;;
38853;SDS011;24606;51.992;4.198;2023-10-13T07:51:35;12.95;;;4.55;;
38853;SDS011;24606;51.992;4.198;2023-10-13T07:56:45;7.55;;;2.85;;
38853;SDS011;24606;51.992;4.198;2023-10-13T08:01:47;14.48;;;3.70;;
38853;SDS011;24606;51.992;4.198;2023-10-13T08:07:09;14.95;;;3.53;;
38853;SDS011;24606;51.992;4.198;2023-10-13T08:12:15;19.27;;;3.88;;
38853;SDS011;24606;51.992;4.198;2023-10-13T08:17:21;19.20;;;4.97;;
38853;SDS011;24606;51.992;4.198;2023-10-13T08:22:29;12.48;;;3.60;;
38853;SDS011;24606;51.992;4.198;2023-10-13T08:27:37;15.23;;;5.07;;
38853;SDS011;24606;51.992;4.198;2023-10-13T08:32:49;20.42;;;4.60;;
38853;SDS011;24606;51.992;4.198;2023-10-13T08:37:57;21.65;;;5.28;;
38853;SDS011;24606;51.992;4.198;2023-10-13T08:43:05;8.02;;;3.10;;
38853;SDS011;24606;51.992;4.198;2023-10-13T08:48:13;16.83;;;3.78;;
38853;SDS011;24606;51.992;4.198;2023-10-13T08:53:15;14.73;;;3.47;;
38853;SDS011;24606;51.992;4.198;2023-10-13T08:58:29;12.95;;;3.40;;
38853;SDS011;24606;51.992;4.198;2023-10-13T09:04:05;9.40;;;3.35;;
38853;SDS011;24606;51.992;4.198;2023-10-13T09:09:22;11.02;;;3.35;;
38853;SDS011;24606;51.992;4.198;2023-10-13T09:14:37;7.03;;;2.78;;
38853;SDS011;24606;51.992;4.198;2023-10-13T09:19:47;11.63;;;4.22;;
38853;SDS011;24606;51.992;4.198;2023-10-13T09:24:56;17.10;;;4.30;;
38853;SDS011;24606;51.992;4.198;2023-10-13T09:30:04;17.10;;;5.15;;
38853;SDS011;24606;51.992;4.198;2023-10-13T09:35:10;7.13;;;3.53;;
38853;SDS011;24606;51.992;4.198;2023-10-13T09:40:19;14.95;;;4.45;;
38853;SDS011;24606;51.992;4.198;2023-10-13T09:45:30;12.52;;;3.30;;
38853;SDS011;24606;51.992;4.198;2023-10-13T09:50:36;28.45;;;4.45;;
38853;SDS011;24606;51.992;4.198;2023-10-13T09:55:41;13.23;;;3.67;;
38853;SDS011;24606;51.992;4.198;2023-10-13T10:00:47;10.68;;;4.32;;
38853;SDS011;24606;51.992;4.198;2023-10-13T10:05:58;9.25;;;3.75;;
38853;SDS011;24606;51.992;4.198;2023-10-13T10:11:23;11.15;;;3.22;;
38853;SDS011;24606;51.992;4.198;2023-10-13T10:16:51;15.95;;;4.75;;
38853;SDS011;24606;51.992;4.198;2023-10-13T10:27:23;13.88;;;3.78;;
38853;SDS011;24606;51.992;4.198;2023-10-13T10:32:33;19.10;;;4.35;;
38853;SDS011;24606;51.992;4.198;2023-10-13T10:37:36;13.57;;;3.80;;
38853;SDS011;24606;51.992;4.198;2023-10-13T10:42:43;14.85;;;3.85;;
38853;SDS011;24606;51.992;4.198;2023-10-13T10:52:51;11.23;;;3.60;;
38853;SDS011;24606;51.992;4.198;2023-10-13T10:58:00;13.13;;;4.10;;
38853;SDS011;24606;51.992;4.198;2023-10-13T11:03:05;20.15;;;4.40;;
38853;SDS011;24606;51.992;4.198;2023-10-13T11:08:07;21.67;;;5.07;;
38853;SDS011;24606;51.992;4.198;2023-10-13T11:13:16;12.63;;;5.32;;
38853;SDS011;24606;51.992;4.198;2023-10-13T11:18:30;20.33;;;5.53;;
38853;SDS011;24606;51.992;4.198;2023-10-13T11:23:37;14.02;;;4.93;;
38853;SDS011;24606;51.992;4.198;2023-10-13T11:28:54;23.00;;;5.13;;
38853;SDS011;24606;51.992;4.198;2023-10-13T11:34:30;18.73;;;5.18;;
38853;SDS011;24606;51.992;4.198;2023-10-13T11:39:42;18.67;;;4.72;;
38853;SDS011;24606;51.992;4.198;2023-10-13T11:44:58;14.35;;;5.07;;
38853;SDS011;24606;51.992;4.198;2023-10-13T11:50:42;13.25;;;4.28;;
38853;SDS011;24606;51.992;4.198;2023-10-13T11:55:56;16.85;;;5.20;;
38853;SDS011;24606;51.992;4.198;2023-10-13T12:01:04;24.67;;;4.38;;
38853;SDS011;24606;51.992;4.198;2023-10-13T12:06:26;15.52;;;5.18;;
38853;SDS011;24606;51.992;4.198;2023-10-13T12:11:39;17.25;;;4.95;;
38853;SDS011;24606;51.992;4.198;2023-10-13T12:16:46;21.73;;;5.57;;
38853;SDS011;24606;51.992;4.198;2023-10-13T12:21:55;32.10;;;6.15;;
38853;SDS011;24606;51.992;4.198;2023-10-13T12:27:04;14.07;;;4.93;;
38853;SDS011;24606;51.992;4.198;2023-10-13T12:32:18;20.38;;;5.57;;
38853;SDS011;24606;51.992;4.198;2023-10-13T12:37:26;19.67;;;5.68;;
38853;SDS011;24606;51.992;4.198;2023-10-13T12:42:55;18.58;;;6.43;;
38853;SDS011;24606;51.992;4.198;2023-10-13T12:48:15;21.77;;;5.07;;
38853;SDS011;24606;51.992;4.198;2023-10-13T12:53:37;9.77;;;3.42;;
38853;SDS011;24606;51.992;4.198;2023-10-13T12:58:43;13.57;;;5.18;;
38853;SDS011;24606;51.992;4.198;2023-10-13T13:03:52;18.00;;;5.22;;
38853;SDS011;24606;51.992;4.198;2023-10-13T13:08:58;18.90;;;5.53;;
38853;SDS011;24606;51.992;4.198;2023-10-13T13:14:01;24.40;;;5.47;;
38853;SDS011;24606;51.992;4.198;2023-10-13T13:19:03;21.95;;;5.47;;
38853;SDS011;24606;51.992;4.198;2023-10-13T13:24:11;22.30;;;5.82;;
38853;SDS011;24606;51.992;4.198;2023-10-13T13:29:14;28.60;;;5.75;;
38853;SDS011;24606;51.992;4.198;2023-10-13T13:34:16;20.05;;;5.95;;
38853;SDS011;24606;51.992;4.198;2023-10-13T13:39:21;29.38;;;5.95;;
38853;SDS011;24606;51.992;4.198;2023-10-13T13:44:30;30.98;;;6.63;;
38853;SDS011;24606;51.992;4.198;2023-10-13T13:49:35;47.97;;;7.20;;
38853;SDS011;24606;51.992;4.198;2023-10-13T13:54:42;39.17;;;6.82;;
38853;SDS011;24606;51.992;4.198;2023-10-13T13:59:43;30.77;;;7.43;;
38853;SDS011;24606;51.992;4.198;2023-10-13T14:04:46;50.38;;;8.43;;
38853;SDS011;24606;51.992;4.198;2023-10-13T14:09:52;60.95;;;10.27;;
38853;SDS011;24606;51.992;4.198;2023-10-13T14:15:06;59.75;;;9.02;;
38853;SDS011;24606;51.992;4.198;2023-10-13T14:20:19;55.65;;;7.93;;
38853;SDS011;24606;51.992;4.198;2023-10-13T14:25:22;45.63;;;7.95;;
38853;SDS011;24606;51.992;4.198;2023-10-13T14:30:28;30.90;;;5.80;;
38853;SDS011;24606;51.992;4.198;2023-10-13T14:35:35;44.20;;;6.50;;
38853;SDS011;24606;51.992;4.198;2023-10-13T14:40:38;31.85;;;7.47;;
38853;SDS011;24606;51.992;4.198;2023-10-13T14:45:40;41.22;;;8.95;;
38853;SDS011;24606;51.992;4.198;2023-10-13T14:50:42;33.83;;;8.30;;
38853;SDS011;24606;51.992;4.198;2023-10-13T14:55:46;37.03;;;7.90;;
38853;SDS011;24606;51.992;4.198;2023-10-13T15:00:48;25.42;;;5.97;;
38853;SDS011;24606;51.992;4.198;2023-10-13T15:05:54;31.58;;;8.27;;
38853;SDS011;24606;51.992;4.198;2023-10-13T15:10:57;30.25;;;7.90;;
38853;SDS011;24606;51.992;4.198;2023-10-13T15:16:13;38.53;;;7.95;;
38853;SDS011;24606;51.992;4.198;2023-10-13T15:21:18;34.53;;;8.70;;
38853;SDS011;24606;51.992;4.198;2023-10-13T15:26:22;37.97;;;7.95;;
38853;SDS011;24606;51.992;4.198;2023-10-13T15:31:24;36.13;;;8.25;;
38853;SDS011;24606;51.992;4.198;2023-10-13T15:36:38;38.08;;;9.43;;
38853;SDS011;24606;51.992;4.198;2023-10-13T15:41:44;28.77;;;7.43;;
38853;SDS011;24606;51.992;4.198;2023-10-13T15:46:46;23.00;;;7.00;;
38853;SDS011;24606;51.992;4.198;2023-10-13T15:51:49;25.10;;;6.15;;
38853;SDS011;24606;51.992;4.198;2023-10-13T15:56:52;27.08;;;6.82;;
38853;SDS011;24606;51.992;4.198;2023-10-13T16:01:54;30.33;;;6.90;;
38853;SDS011;24606;51.992;4.198;2023-10-13T16:06:57;31.17;;;7.32;;
38853;SDS011;24606;51.992;4.198;2023-10-13T16:12:01;28.10;;;7.28;;
38853;SDS011;24606;51.992;4.198;2023-10-13T16:17:03;21.55;;;6.97;;
38853;SDS011;24606;51.992;4.198;2023-10-13T16:22:05;17.10;;;5.40;;
38853;SDS011;24606;51.992;4.198;2023-10-13T16:27:11;19.52;;;5.25;;
38853;SDS011;24606;51.992;4.198;2023-10-13T16:32:14;24.38;;;6.38;;
38853;SDS011;24606;51.992;4.198;2023-10-13T16:37:18;19.10;;;5.65;;
38853;SDS011;24606;51.992;4.198;2023-10-13T16:42:21;21.10;;;6.07;;
38853;SDS011;24606;51.992;4.198;2023-10-13T16:47:23;23.20;;;4.95;;
38853;SDS011;24606;51.992;4.198;2023-10-13T16:52:25;24.13;;;6.43;;
38853;SDS011;24606;51.992;4.198;2023-10-13T16:57:29;16.10;;;4.93;;
38853;SDS011;24606;51.992;4.198;2023-10-13T17:02:31;23.88;;;4.95;;
38853;SDS011;24606;51.992;4.198;2023-10-13T17:07:33;21.42;;;5.50;;
38853;SDS011;24606;51.992;4.198;2023-10-13T17:12:37;13.90;;;4.07;;
38853;SDS011;24606;51.992;4.198;2023-10-13T17:17:40;13.00;;;4.22;;
38853;SDS011;24606;51.992;4.198;2023-10-13T17:22:44;22.75;;;4.70;;
38853;SDS011;24606;51.992;4.198;2023-10-13T17:27:49;21.40;;;5.20;;
38853;SDS011;24606;51.992;4.198;2023-10-13T17:32:52;19.98;;;4.47;;
38853;SDS011;24606;51.992;4.198;2023-10-13T17:37:56;12.85;;;3.55;;
38853;SDS011;24606;51.992;4.198;2023-10-13T17:42:59;15.52;;;3.70;;
38853;SDS011;24606;51.992;4.198;2023-10-13T17:48:01;19.52;;;5.05;;
38853;SDS011;24606;51.992;4.198;2023-10-13T17:53:06;21.88;;;4.30;;
38853;SDS011;24606;51.992;4.198;2023-10-13T17:58:09;17.25;;;4.28;;
38853;SDS011;24606;51.992;4.198;2023-10-13T18:03:11;22.38;;;4.90;;
38853;SDS011;24606;51.992;4.198;2023-10-13T18:08:12;15.90;;;5.30;;
38853;SDS011;24606;51.992;4.198;2023-10-13T18:13:16;19.88;;;5.72;;
38853;SDS011;24606;51.992;4.198;2023-10-13T18:18:18;29.90;;;6.10;;
38853;SDS011;24606;51.992;4.198;2023-10-13T18:23:20;17.73;;;4.88;;
38853;SDS011;24606;51.992;4.198;2023-10-13T18:28:24;20.73;;;5.38;;
38853;SDS011;24606;51.992;4.198;2023-10-13T18:33:26;23.20;;;5.70;;
38853;SDS011;24606;51.992;4.198;2023-10-13T18:38:28;14.30;;;5.18;;
38853;SDS011;24606;51.992;4.198;2023-10-13T18:43:32;18.50;;;5.43;;
38853;SDS011;24606;51.992;4.198;2023-10-13T18:48:36;15.63;;;4.60;;
38853;SDS011;24606;51.992;4.198;2023-10-13T18:53:38;17.83;;;5.60;;
38853;SDS011;24606;51.992;4.198;2023-10-13T18:58:43;17.55;;;6.60;;
38853;SDS011;24606;51.992;4.198;2023-10-13T19:03:48;22.42;;;6.13;;
38853;SDS011;24606;51.992;4.198;2023-10-13T19:08:51;16.75;;;4.85;;
38853;SDS011;24606;51.992;4.198;2023-10-13T19:13:54;19.23;;;5.95;;
38853;SDS011;24606;51.992;4.198;2023-10-13T19:18:58;24.05;;;7.07;;
38853;SDS011;24606;51.992;4.198;2023-10-13T19:24:04;23.85;;;7.40;;
38853;SDS011;24606;51.992;4.198;2023-10-13T19:29:08;21.80;;;7.20;;
38853;SDS011;24606;51.992;4.198;2023-10-13T19:34:09;22.30;;;7.68;;
38853;SDS011;24606;51.992;4.198;2023-10-13T19:39:17;24.20;;;6.95;;
38853;SDS011;24606;51.992;4.198;2023-10-13T19:44:21;22.15;;;7.38;;
38853;SDS011;24606;51.992;4.198;2023-10-13T19:49:25;21.50;;;8.68;;
38853;SDS011;24606;51.992;4.198;2023-10-13T19:54:27;28.00;;;7.97;;
38853;SDS011;24606;51.992;4.198;2023-10-13T19:59:30;31.57;;;9.13;;
38853;SDS011;24606;51.992;4.198;2023-10-13T20:04:33;30.58;;;10.00;;
38853;SDS011;24606;51.992;4.198;2023-10-13T20:09:36;32.10;;;9.98;;
38853;SDS011;24606;51.992;4.198;2023-10-13T20:14:39;22.43;;;8.43;;
38853;SDS011;24606;51.992;4.198;2023-10-13T20:19:41;24.50;;;6.45;;
38853;SDS011;24606;51.992;4.198;2023-10-13T20:24:43;22.37;;;6.40;;
38853;SDS011;24606;51.992;4.198;2023-10-13T20:29:46;34.83;;;7.70;;
38853;SDS011;24606;51.992;4.198;2023-10-13T20:34:51;20.20;;;6.53;;
38853;SDS011;24606;51.992;4.198;2023-10-13T20:39:54;30.58;;;7.20;;
38853;SDS011;24606;51.992;4.198;2023-10-13T20:44:58;38.03;;;8.63;;
38853;SDS011;24606;51.992;4.198;2023-10-13T20:50:00;28.90;;;6.80;;
38853;SDS011;24606;51.992;4.198;2023-10-13T20:55:02;28.02;;;5.70;;
38853;SDS011;24606;51.992;4.198;2023-10-13T21:00:07;28.40;;;6.30;;
38853;SDS011;24606;51.992;4.198;2023-10-13T21:05:19;37.72;;;5.63;;
38853;SDS011;24606;51.992;4.198;2023-10-13T21:10:22;18.48;;;3.05;;
38853;SDS011;24606;51.992;4.198;2023-10-13T21:15:26;11.70;;;2.58;;
38853;SDS011;24606;51.992;4.198;2023-10-13T21:20:27;12.35;;;1.73;;
38853;SDS011;24606;51.992;4.198;2023-10-13T21:25:34;13.52;;;1.30;;
38853;SDS011;24606;51.992;4.198;2023-10-13T21:30:38;11.95;;;2.08;;
38853;SDS011;24606;51.992;4.198;2023-10-13T21:35:40;6.72;;;2.50;;
38853;SDS011;24606;51.992;4.198;2023-10-13T21:40:42;7.35;;;1.50;;
38853;SDS011;24606;51.992;4.198;2023-10-13T21:45:46;12.65;;;2.00;;
38853;SDS011;24606;51.992;4.198;2023-10-13T21:50:48;8.18;;;1.92;;
38853;SDS011;24606;51.992;4.198;2023-10-13T21:55:50;7.53;;;2.17;;
38853;SDS011;24606;51.992;4.198;2023-10-13T22:00:53;6.72;;;2.05;;
38853;SDS011;24606;51.992;4.198;2023-10-13T22:05:57;3.80;;;1.75;;
38853;SDS011;24606;51.992;4.198;2023-10-13T22:11:00;6.50;;;1.38;;
38853;SDS011;24606;51.992;4.198;2023-10-13T22:16:04;3.83;;;0.90;;
38853;SDS011;24606;51.992;4.198;2023-10-13T22:21:10;7.07;;;1.63;;
38853;SDS011;24606;51.992;4.198;2023-10-13T22:26:13;4.53;;;1.40;;
38853;SDS011;24606;51.992;4.198;2023-10-13T22:31:18;5.28;;;1.60;;
38853;SDS011;24606;51.992;4.198;2023-10-13T22:36:22;13.93;;;1.27;;
38853;SDS011;24606;51.992;4.198;2023-10-13T22:41:24;12.82;;;1.85;;
38853;SDS011;24606;51.992;4.198;2023-10-13T22:46:28;4.85;;;1.10;;
38853;SDS011;24606;51.992;4.198;2023-10-13T22:51:31;12.38;;;1.40;;
38853;SDS011;24606;51.992;4.198;2023-10-13T22:56:33;5.60;;;1.40;;
38853;SDS011;24606;51.992;4.198;2023-10-13T23:01:36;9.87;;;1.57;;
38853;SDS011;24606;51.992;4.198;2023-10-13T23:06:42;6.47;;;1.20;;
38853;SDS011;24606;51.992;4.198;2023-10-13T23:11:49;6.35;;;1.58;;
38853;SDS011;24606;51.992;4.198;2023-10-13T23:16:57;6.05;;;1.15;;
38853;SDS011;24606;51.992;4.198;2023-10-13T23:22:00;9.00;;;1.98;;
38853;SDS011;24606;51.992;4.198;2023-10-13T23:27:05;7.88;;;1.17;;
38853;SDS011;24606;51.992;4.198;2023-10-13T23:32:09;3.33;;;1.43;;
38853;SDS011;24606;51.992;4.198;2023-10-13T23:37:12;7.82;;;1.83;;
38853;SDS011;24606;51.992;4.198;2023-10-13T23:42:14;3.75;;;1.38;;
38853;SDS011;24606;51.992;4.198;2023-10-13T23:47:25;10.63;;;1.17;;
38853;SDS011;24606;51.992;4.198;2023-10-13T23:52:28;8.52;;;1.35;;
38853;SDS011;24606;51.992;4.198;2023-10-13T23:57:38;10.13;;;1.58;;
